sensor_id;sensor_type;location;lat;lon;timestamp;pressure;altitude;pressure_sealevel;temperature;humidity
79465;BME280;68932;47.410;8.232;2023-04-15T00:01:02;95840.33;;;5.42;60.79
79465;BME280;68932;47.410;8.232;2023-04-15T00:03:29;95839.69;;;5.44;60.94
79465;BME280;68932;47.410;8.232;2023-04-15T00:05:57;95834.39;;;5.45;61.08
79465;BME280;68932;47.410;8.232;2023-04-15T00:08:24;95834.13;;;5.47;61.21
79465;BME280;68932;47.410;8.232;2023-04-15T00:10:51;95831.30;;;5.48;61.19
79465;BME280;68932;47.410;8.232;2023-04-15T00:13:18;95836.95;;;5.49;61.55
79465;BME280;68932;47.410;8.232;2023-04-15T00:15:45;95828.99;;;5.51;61.75
79465;BME280;68932;47.410;8.232;2023-04-15T00:18:12;95830.69;;;5.51;62.02
79465;BME280;68932;47.410;8.232;2023-04-15T00:20:39;95828.54;;;5.53;61.93
79465;BME280;68932;47.410;8.232;2023-04-15T00:23:06;95831.11;;;5.56;62.10
79465;BME280;68932;47.410;8.232;2023-04-15T00:25:33;95829.59;;;5.61;62.17
79465;BME280;68932;47.410;8.232;2023-04-15T00:28:00;95832.67;;;5.67;62.16
79465;BME280;68932;47.410;8.232;2023-04-15T00:30:27;95834.59;;;5.75;62.31
79465;BME280;68932;47.410;8.232;2023-04-15T00:32:54;95829.44;;;5.82;62.41
79465;BME280;68932;47.410;8.232;2023-04-15T00:35:21;95830.99;;;5.90;62.11
79465;BME280;68932;47.410;8.232;2023-04-15T00:37:48;95830.84;;;5.95;62.09
79465;BME280;68932;47.410;8.232;2023-04-15T00:40:18;95827.10;;;5.99;62.14
79465;BME280;68932;47.410;8.232;2023-04-15T00:42:45;95825.69;;;6.03;62.50
79465;BME280;68932;47.410;8.232;2023-04-15T00:45:12;95823.31;;;6.04;62.52
79465;BME280;68932;47.410;8.232;2023-04-15T00:47:40;95822.20;;;6.06;62.61
79465;BME280;68932;47.410;8.232;2023-04-15T00:50:10;95822.35;;;6.06;62.64
79465;BME280;68932;47.410;8.232;2023-04-15T00:52:37;95820.21;;;6.07;63.06
79465;BME280;68932;47.410;8.232;2023-04-15T00:55:06;95820.02;;;6.07;63.15
79465;BME280;68932;47.410;8.232;2023-04-15T00:57:34;95824.06;;;6.06;63.28
79465;BME280;68932;47.410;8.232;2023-04-15T01:00:02;95822.54;;;6.06;63.56
79465;BME280;68932;47.410;8.232;2023-04-15T01:02:29;95823.77;;;6.06;64.02
79465;BME280;68932;47.410;8.232;2023-04-15T01:04:57;95828.06;;;6.06;64.02
79465;BME280;68932;47.410;8.232;2023-04-15T01:07:24;95829.55;;;6.08;63.88
79465;BME280;68932;47.410;8.232;2023-04-15T01:09:51;95828.13;;;6.08;64.17
79465;BME280;68932;47.410;8.232;2023-04-15T01:12:19;95829.52;;;6.08;64.11
79465;BME280;68932;47.410;8.232;2023-04-15T01:14:47;95830.33;;;6.06;63.98
79465;BME280;68932;47.410;8.232;2023-04-15T01:17:13;95832.42;;;6.09;64.04
79465;BME280;68932;47.410;8.232;2023-04-15T01:19:40;95834.48;;;6.14;64.20
79465;BME280;68932;47.410;8.232;2023-04-15T01:22:08;95832.77;;;6.19;64.19
79465;BME280;68932;47.410;8.232;2023-04-15T01:24:35;95827.88;;;6.22;64.24
79465;BME280;68932;47.410;8.232;2023-04-15T01:27:03;95827.55;;;6.27;64.09
79465;BME280;68932;47.410;8.232;2023-04-15T01:29:30;95826.34;;;6.32;63.90
79465;BME280;68932;47.410;8.232;2023-04-15T01:31:57;95828.27;;;6.37;63.67
79465;BME280;68932;47.410;8.232;2023-04-15T01:34:24;95830.27;;;6.41;63.62
79465;BME280;68932;47.410;8.232;2023-04-15T01:36:51;95832.01;;;6.44;63.73
79465;BME280;68932;47.410;8.232;2023-04-15T01:39:18;95833.73;;;6.46;63.74
79465;BME280;68932;47.410;8.232;2023-04-15T01:41:45;95832.23;;;6.48;63.94
79465;BME280;68932;47.410;8.232;2023-04-15T01:44:13;95833.16;;;6.47;63.99
79465;BME280;68932;47.410;8.232;2023-04-15T01:46:40;95831.78;;;6.45;63.89
79465;BME280;68932;47.410;8.232;2023-04-15T01:49:07;95824.33;;;6.41;64.08
79465;BME280;68932;47.410;8.232;2023-04-15T01:51:35;95823.63;;;6.38;64.13
79465;BME280;68932;47.410;8.232;2023-04-15T01:54:02;95821.82;;;6.34;63.92
79465;BME280;68932;47.410;8.232;2023-04-15T01:56:29;95818.56;;;6.31;63.47
79465;BME280;68932;47.410;8.232;2023-04-15T01:58:56;95821.66;;;6.29;63.43
79465;BME280;68932;47.410;8.232;2023-04-15T02:01:23;95818.91;;;6.26;63.48
79465;BME280;68932;47.410;8.232;2023-04-15T02:03:50;95819.71;;;6.24;63.54
79465;BME280;68932;47.410;8.232;2023-04-15T02:06:17;95824.66;;;6.23;63.69
79465;BME280;68932;47.410;8.232;2023-04-15T02:08:43;95827.33;;;6.23;63.87
79465;BME280;68932;47.410;8.232;2023-04-15T02:11:10;95827.13;;;6.23;63.67
79465;BME280;68932;47.410;8.232;2023-04-15T02:13:37;95825.35;;;6.23;63.69
79465;BME280;68932;47.410;8.232;2023-04-15T02:16:15;95825.80;;;6.22;63.86
79465;BME280;68932;47.410;8.232;2023-04-15T02:18:42;95831.57;;;6.18;64.08
79465;BME280;68932;47.410;8.232;2023-04-15T02:21:09;95831.31;;;6.15;64.41
79465;BME280;68932;47.410;8.232;2023-04-15T02:23:36;95834.13;;;6.12;64.56
79465;BME280;68932;47.410;8.232;2023-04-15T02:26:03;95836.16;;;6.10;64.84
79465;BME280;68932;47.410;8.232;2023-04-15T02:28:30;95832.33;;;6.10;64.87
79465;BME280;68932;47.410;8.232;2023-04-15T02:30:57;95832.81;;;6.13;64.83
79465;BME280;68932;47.410;8.232;2023-04-15T02:33:24;95830.60;;;6.18;65.15
79465;BME280;68932;47.410;8.232;2023-04-15T02:35:51;95826.92;;;6.21;65.10
79465;BME280;68932;47.410;8.232;2023-04-15T02:38:18;95828.59;;;6.22;65.00
79465;BME280;68932;47.410;8.232;2023-04-15T02:40:45;95829.77;;;6.23;64.96
79465;BME280;68932;47.410;8.232;2023-04-15T02:43:12;95828.22;;;6.22;65.16
79465;BME280;68932;47.410;8.232;2023-04-15T02:45:39;95830.23;;;6.23;65.28
79465;BME280;68932;47.410;8.232;2023-04-15T02:48:06;95827.42;;;6.24;65.04
79465;BME280;68932;47.410;8.232;2023-04-15T02:50:33;95827.55;;;6.24;65.03
79465;BME280;68932;47.410;8.232;2023-04-15T02:53:00;95829.68;;;6.24;64.93
79465;BME280;68932;47.410;8.232;2023-04-15T02:55:27;95828.90;;;6.25;64.74
79465;BME280;68932;47.410;8.232;2023-04-15T02:57:54;95827.90;;;6.27;64.60
79465;BME280;68932;47.410;8.232;2023-04-15T03:00:21;95831.11;;;6.28;64.50
79465;BME280;68932;47.410;8.232;2023-04-15T03:02:49;95831.27;;;6.28;64.55
79465;BME280;68932;47.410;8.232;2023-04-15T03:05:16;95832.95;;;6.27;64.82
79465;BME280;68932;47.410;8.232;2023-04-15T03:07:43;95832.30;;;6.24;65.02
79465;BME280;68932;47.410;8.232;2023-04-15T03:10:11;95830.59;;;6.20;65.20
79465;BME280;68932;47.410;8.232;2023-04-15T03:12:38;95831.14;;;6.20;65.12
79465;BME280;68932;47.410;8.232;2023-04-15T03:15:07;95835.25;;;6.21;65.40
79465;BME280;68932;47.410;8.232;2023-04-15T03:17:34;95832.83;;;6.23;65.52
79465;BME280;68932;47.410;8.232;2023-04-15T03:20:02;95835.71;;;6.27;65.31
79465;BME280;68932;47.410;8.232;2023-04-15T03:22:29;95831.85;;;6.30;65.50
79465;BME280;68932;47.410;8.232;2023-04-15T03:24:56;95831.02;;;6.32;65.37
79465;BME280;68932;47.410;8.232;2023-04-15T03:27:24;95829.86;;;6.34;65.15
79465;BME280;68932;47.410;8.232;2023-04-15T03:29:51;95823.63;;;6.33;64.95
79465;BME280;68932;47.410;8.232;2023-04-15T03:32:18;95822.20;;;6.31;64.90
79465;BME280;68932;47.410;8.232;2023-04-15T03:34:45;95818.55;;;6.29;64.88
79465;BME280;68932;47.410;8.232;2023-04-15T03:37:12;95816.90;;;6.25;64.97
79465;BME280;68932;47.410;8.232;2023-04-15T03:39:39;95817.86;;;6.21;65.12
79465;BME280;68932;47.410;8.232;2023-04-15T03:42:06;95820.52;;;6.17;65.26
79465;BME280;68932;47.410;8.232;2023-04-15T03:44:32;95820.66;;;6.13;65.49
79465;BME280;68932;47.410;8.232;2023-04-15T03:46:59;95818.41;;;6.10;65.74
79465;BME280;68932;47.410;8.232;2023-04-15T03:49:26;95816.59;;;6.11;65.94
79465;BME280;68932;47.410;8.232;2023-04-15T03:51:53;95817.89;;;6.12;66.49
79465;BME280;68932;47.410;8.232;2023-04-15T03:54:20;95816.33;;;6.13;66.64
79465;BME280;68932;47.410;8.232;2023-04-15T03:56:47;95819.06;;;6.13;66.14
79465;BME280;68932;47.410;8.232;2023-04-15T03:59:14;95820.11;;;6.13;65.60
79465;BME280;68932;47.410;8.232;2023-04-15T04:01:41;95822.77;;;6.12;65.15
79465;BME280;68932;47.410;8.232;2023-04-15T04:04:07;95819.80;;;6.13;64.98
79465;BME280;68932;47.410;8.232;2023-04-15T04:06:34;95822.73;;;6.13;64.26
79465;BME280;68932;47.410;8.232;2023-04-15T04:09:02;95820.83;;;6.13;63.75
79465;BME280;68932;47.410;8.232;2023-04-15T04:11:29;95822.13;;;6.14;63.94
79465;BME280;68932;47.410;8.232;2023-04-15T04:13:55;95823.10;;;6.16;64.30
79465;BME280;68932;47.410;8.232;2023-04-15T04:16:22;95826.25;;;6.18;64.35
79465;BME280;68932;47.410;8.232;2023-04-15T04:18:49;95827.23;;;6.21;64.17
79465;BME280;68932;47.410;8.232;2023-04-15T04:21:16;95830.14;;;6.25;64.26
79465;BME280;68932;47.410;8.232;2023-04-15T04:23:44;95828.38;;;6.25;64.36
79465;BME280;68932;47.410;8.232;2023-04-15T04:26:11;95834.06;;;6.23;64.50
79465;BME280;68932;47.410;8.232;2023-04-15T04:28:38;95833.94;;;6.20;64.73
79465;BME280;68932;47.410;8.232;2023-04-15T04:31:05;95835.64;;;6.18;64.91
79465;BME280;68932;47.410;8.232;2023-04-15T04:33:33;95833.67;;;6.16;64.99
79465;BME280;68932;47.410;8.232;2023-04-15T04:36:00;95834.18;;;6.14;65.13
79465;BME280;68932;47.410;8.232;2023-04-15T04:38:27;95832.91;;;6.12;65.14
79465;BME280;68932;47.410;8.232;2023-04-15T04:40:53;95830.58;;;6.10;64.98
79465;BME280;68932;47.410;8.232;2023-04-15T04:43:20;95835.38;;;6.09;65.37
79465;BME280;68932;47.410;8.232;2023-04-15T04:45:47;95835.40;;;6.09;65.30
79465;BME280;68932;47.410;8.232;2023-04-15T04:48:14;95835.65;;;6.10;65.49
79465;BME280;68932;47.410;8.232;2023-04-15T04:50:41;95834.52;;;6.11;65.73
79465;BME280;68932;47.410;8.232;2023-04-15T04:53:08;95840.60;;;6.11;65.89
79465;BME280;68932;47.410;8.232;2023-04-15T04:55:35;95840.66;;;6.10;65.94
79465;BME280;68932;47.410;8.232;2023-04-15T04:58:02;95843.94;;;6.11;66.13
79465;BME280;68932;47.410;8.232;2023-04-15T05:00:29;95850.23;;;6.10;66.26
79465;BME280;68932;47.410;8.232;2023-04-15T05:02:56;95852.49;;;6.13;66.14
79465;BME280;68932;47.410;8.232;2023-04-15T05:05:23;95853.92;;;6.17;65.86
79465;BME280;68932;47.410;8.232;2023-04-15T05:07:50;95851.05;;;6.22;65.63
79465;BME280;68932;47.410;8.232;2023-04-15T05:10:17;95849.99;;;6.24;65.36
79465;BME280;68932;47.410;8.232;2023-04-15T05:12:44;95850.71;;;6.27;65.49
79465;BME280;68932;47.410;8.232;2023-04-15T05:15:12;95852.20;;;6.28;65.63
79465;BME280;68932;47.410;8.232;2023-04-15T05:17:39;95856.39;;;6.30;65.81
79465;BME280;68932;47.410;8.232;2023-04-15T05:20:08;95854.92;;;6.31;65.69
79465;BME280;68932;47.410;8.232;2023-04-15T05:22:35;95856.00;;;6.31;65.29
79465;BME280;68932;47.410;8.232;2023-04-15T05:25:03;95857.21;;;6.31;65.08
79465;BME280;68932;47.410;8.232;2023-04-15T05:27:30;95856.98;;;6.32;64.99
79465;BME280;68932;47.410;8.232;2023-04-15T05:29:57;95856.92;;;6.33;64.63
79465;BME280;68932;47.410;8.232;2023-04-15T05:32:24;95857.42;;;6.33;64.69
79465;BME280;68932;47.410;8.232;2023-04-15T05:34:50;95858.32;;;6.35;65.21
79465;BME280;68932;47.410;8.232;2023-04-15T05:37:17;95859.86;;;6.41;65.48
79465;BME280;68932;47.410;8.232;2023-04-15T05:39:44;95857.91;;;6.47;65.45
79465;BME280;68932;47.410;8.232;2023-04-15T05:42:12;95859.79;;;6.55;65.68
79465;BME280;68932;47.410;8.232;2023-04-15T05:44:38;95858.70;;;6.61;66.09
79465;BME280;68932;47.410;8.232;2023-04-15T05:47:05;95861.19;;;6.65;65.85
79465;BME280;68932;47.410;8.232;2023-04-15T05:49:33;95863.25;;;6.68;65.88
79465;BME280;68932;47.410;8.232;2023-04-15T05:52:00;95864.34;;;6.70;66.06
79465;BME280;68932;47.410;8.232;2023-04-15T05:54:27;95861.59;;;6.72;66.02
79465;BME280;68932;47.410;8.232;2023-04-15T05:56:54;95867.62;;;6.73;66.21
79465;BME280;68932;47.410;8.232;2023-04-15T05:59:21;95869.52;;;6.73;66.15
79465;BME280;68932;47.410;8.232;2023-04-15T06:01:48;95870.41;;;6.75;66.54
79465;BME280;68932;47.410;8.232;2023-04-15T06:04:15;95868.76;;;6.76;66.92
79465;BME280;68932;47.410;8.232;2023-04-15T06:06:45;95866.73;;;6.78;67.22
79465;BME280;68932;47.410;8.232;2023-04-15T06:09:12;95866.20;;;6.78;67.47
79465;BME280;68932;47.410;8.232;2023-04-15T06:11:39;95862.48;;;6.82;67.37
79465;BME280;68932;47.410;8.232;2023-04-15T06:14:06;95863.59;;;6.86;67.21
79465;BME280;68932;47.410;8.232;2023-04-15T06:16:33;95864.16;;;6.88;66.55
79465;BME280;68932;47.410;8.232;2023-04-15T06:18:59;95867.02;;;6.92;66.00
79465;BME280;68932;47.410;8.232;2023-04-15T06:21:26;95867.41;;;6.96;65.45
79465;BME280;68932;47.410;8.232;2023-04-15T06:23:53;95870.05;;;6.98;66.14
79465;BME280;68932;47.410;8.232;2023-04-15T06:26:20;95865.26;;;7.00;66.50
79465;BME280;68932;47.410;8.232;2023-04-15T06:28:47;95871.59;;;7.04;66.84
79465;BME280;68932;47.410;8.232;2023-04-15T06:31:14;95869.67;;;7.09;66.83
79465;BME280;68932;47.410;8.232;2023-04-15T06:33:41;95867.98;;;7.13;66.71
79465;BME280;68932;47.410;8.232;2023-04-15T06:36:08;95868.70;;;7.18;66.90
79465;BME280;68932;47.410;8.232;2023-04-15T06:38:35;95869.91;;;7.20;67.22
79465;BME280;68932;47.410;8.232;2023-04-15T06:41:03;95873.13;;;7.25;67.40
79465;BME280;68932;47.410;8.232;2023-04-15T06:43:30;95870.70;;;7.29;67.48
79465;BME280;68932;47.410;8.232;2023-04-15T06:45:57;95870.08;;;7.33;67.27
79465;BME280;68932;47.410;8.232;2023-04-15T06:48:24;95871.10;;;7.38;67.32
79465;BME280;68932;47.410;8.232;2023-04-15T06:50:51;95873.14;;;7.44;66.79
79465;BME280;68932;47.410;8.232;2023-04-15T06:53:19;95876.92;;;7.47;66.13
79465;BME280;68932;47.410;8.232;2023-04-15T06:55:46;95878.42;;;7.50;65.93
79465;BME280;68932;47.410;8.232;2023-04-15T06:58:13;95878.34;;;7.54;65.88
79465;BME280;68932;47.410;8.232;2023-04-15T07:00:39;95876.56;;;7.59;66.11
79465;BME280;68932;47.410;8.232;2023-04-15T07:03:06;95878.98;;;7.65;66.33
79465;BME280;68932;47.410;8.232;2023-04-15T07:05:34;95876.35;;;7.70;66.15
79465;BME280;68932;47.410;8.232;2023-04-15T07:08:01;95874.32;;;7.79;66.39
79465;BME280;68932;47.410;8.232;2023-04-15T07:10:28;95877.16;;;7.88;66.78
79465;BME280;68932;47.410;8.232;2023-04-15T07:12:55;95876.62;;;7.92;66.54
79465;BME280;68932;47.410;8.232;2023-04-15T07:15:22;95875.03;;;8.00;66.85
79465;BME280;68932;47.410;8.232;2023-04-15T07:17:49;95880.56;;;8.08;67.07
79465;BME280;68932;47.410;8.232;2023-04-15T07:20:17;95878.81;;;8.15;67.01
79465;BME280;68932;47.410;8.232;2023-04-15T07:22:44;95879.70;;;8.20;67.21
79465;BME280;68932;47.410;8.232;2023-04-15T07:25:11;95881.67;;;8.24;67.09
79465;BME280;68932;47.410;8.232;2023-04-15T07:27:38;95881.61;;;8.27;66.44
79465;BME280;68932;47.410;8.232;2023-04-15T07:30:08;95882.75;;;8.30;66.34
79465;BME280;68932;47.410;8.232;2023-04-15T07:32:35;95883.95;;;8.35;66.47
79465;BME280;68932;47.410;8.232;2023-04-15T07:35:03;95885.05;;;8.42;66.14
79465;BME280;68932;47.410;8.232;2023-04-15T07:37:30;95882.88;;;8.46;66.14
79465;BME280;68932;47.410;8.232;2023-04-15T07:39:57;95879.77;;;8.52;66.78
79465;BME280;68932;47.410;8.232;2023-04-15T07:42:24;95880.95;;;8.60;67.04
79465;BME280;68932;47.410;8.232;2023-04-15T07:44:51;95874.42;;;8.67;67.14
79465;BME280;68932;47.410;8.232;2023-04-15T07:47:18;95873.81;;;8.75;66.64
79465;BME280;68932;47.410;8.232;2023-04-15T07:49:45;95876.70;;;8.81;66.42
79465;BME280;68932;47.410;8.232;2023-04-15T07:52:11;95878.06;;;8.84;65.92
79465;BME280;68932;47.410;8.232;2023-04-15T07:54:38;95880.34;;;8.87;66.18
79465;BME280;68932;47.410;8.232;2023-04-15T07:57:05;95877.11;;;8.90;66.35
79465;BME280;68932;47.410;8.232;2023-04-15T07:59:32;95876.70;;;8.95;66.41
79465;BME280;68932;47.410;8.232;2023-04-15T08:01:59;95875.32;;;8.99;66.21
79465;BME280;68932;47.410;8.232;2023-04-15T08:04:26;95875.48;;;9.04;66.09
79465;BME280;68932;47.410;8.232;2023-04-15T08:06:53;95874.36;;;9.12;66.33
79465;BME280;68932;47.410;8.232;2023-04-15T08:09:20;95876.27;;;9.14;66.52
79465;BME280;68932;47.410;8.232;2023-04-15T08:11:48;95876.54;;;9.13;66.74
79465;BME280;68932;47.410;8.232;2023-04-15T08:14:15;95877.19;;;9.18;67.07
79465;BME280;68932;47.410;8.232;2023-04-15T08:16:42;95876.61;;;9.28;67.45
79465;BME280;68932;47.410;8.232;2023-04-15T08:19:09;95874.27;;;9.35;68.06
79465;BME280;68932;47.410;8.232;2023-04-15T08:21:36;95877.69;;;9.45;68.63
79465;BME280;68932;47.410;8.232;2023-04-15T08:24:04;95880.27;;;9.57;68.92
79465;BME280;68932;47.410;8.232;2023-04-15T08:26:31;95882.34;;;9.71;69.34
79465;BME280;68932;47.410;8.232;2023-04-15T08:28:58;95881.16;;;9.79;68.77
79465;BME280;68932;47.410;8.232;2023-04-15T08:31:27;95877.86;;;9.80;68.60
79465;BME280;68932;47.410;8.232;2023-04-15T08:33:56;95877.63;;;9.79;68.53
79465;BME280;68932;47.410;8.232;2023-04-15T08:36:23;95873.38;;;9.77;68.71
79465;BME280;68932;47.410;8.232;2023-04-15T08:38:50;95871.16;;;9.79;69.25
79465;BME280;68932;47.410;8.232;2023-04-15T08:41:21;95870.30;;;9.79;69.81
79465;BME280;68932;47.410;8.232;2023-04-15T08:43:52;95868.51;;;9.79;70.16
79465;BME280;68932;47.410;8.232;2023-04-15T08:46:20;95866.34;;;9.78;69.89
79465;BME280;68932;47.410;8.232;2023-04-15T08:48:48;95861.88;;;9.75;69.93
79465;BME280;68932;47.410;8.232;2023-04-15T08:51:15;95866.52;;;9.74;70.16
79465;BME280;68932;47.410;8.232;2023-04-15T08:53:44;95868.62;;;9.76;70.58
79465;BME280;68932;47.410;8.232;2023-04-15T08:56:13;95868.17;;;9.79;70.51
79465;BME280;68932;47.410;8.232;2023-04-15T08:58:40;95864.39;;;9.80;70.11
79465;BME280;68932;47.410;8.232;2023-04-15T09:01:07;95863.77;;;9.84;69.99
79465;BME280;68932;47.410;8.232;2023-04-15T09:03:34;95860.61;;;9.88;69.87
79465;BME280;68932;47.410;8.232;2023-04-15T09:06:04;95861.52;;;9.90;69.71
79465;BME280;68932;47.410;8.232;2023-04-15T09:08:30;95866.61;;;9.92;69.76
79465;BME280;68932;47.410;8.232;2023-04-15T09:10:58;95867.15;;;9.94;69.56
79465;BME280;68932;47.410;8.232;2023-04-15T09:13:25;95865.35;;;9.93;69.28
79465;BME280;68932;47.410;8.232;2023-04-15T09:15:53;95869.17;;;9.88;68.71
79465;BME280;68932;47.410;8.232;2023-04-15T09:18:28;95868.95;;;9.83;68.39
79465;BME280;68932;47.410;8.232;2023-04-15T09:20:56;95869.08;;;9.79;68.57
79465;BME280;68932;47.410;8.232;2023-04-15T09:23:29;95874.72;;;9.78;68.41
79465;BME280;68932;47.410;8.232;2023-04-15T09:25:57;95880.45;;;9.79;68.26
79465;BME280;68932;47.410;8.232;2023-04-15T09:28:24;95881.30;;;9.81;67.98
79465;BME280;68932;47.410;8.232;2023-04-15T09:30:55;95882.89;;;9.83;67.61
79465;BME280;68932;47.410;8.232;2023-04-15T09:33:22;95889.20;;;9.85;67.33
79465;BME280;68932;47.410;8.232;2023-04-15T09:35:57;95891.54;;;9.87;67.27
79465;BME280;68932;47.410;8.232;2023-04-15T09:38:24;95894.23;;;9.86;66.64
79465;BME280;68932;47.410;8.232;2023-04-15T09:40:52;95898.52;;;9.85;66.64
79465;BME280;68932;47.410;8.232;2023-04-15T09:43:19;95899.92;;;9.87;66.52
79465;BME280;68932;47.410;8.232;2023-04-15T09:45:50;95906.27;;;9.91;66.46
79465;BME280;68932;47.410;8.232;2023-04-15T09:48:20;95910.83;;;9.93;66.42
79465;BME280;68932;47.410;8.232;2023-04-15T09:50:48;95911.99;;;9.96;66.43
79465;BME280;68932;47.410;8.232;2023-04-15T09:53:19;95915.19;;;9.99;66.54
79465;BME280;68932;47.410;8.232;2023-04-15T09:55:49;95912.33;;;10.05;66.12
79465;BME280;68932;47.410;8.232;2023-04-15T09:58:21;95916.90;;;10.15;66.09
79465;BME280;68932;47.410;8.232;2023-04-15T10:00:49;95919.69;;;10.29;66.56
79465;BME280;68932;47.410;8.232;2023-04-15T10:03:19;95919.39;;;10.41;66.34
79465;BME280;68932;47.410;8.232;2023-04-15T10:05:47;95925.48;;;10.52;65.92
79465;BME280;68932;47.410;8.232;2023-04-15T10:08:17;95929.06;;;10.60;65.47
79465;BME280;68932;47.410;8.232;2023-04-15T10:10:45;95928.88;;;10.64;65.45
79465;BME280;68932;47.410;8.232;2023-04-15T10:13:13;95929.84;;;10.65;65.15
79465;BME280;68932;47.410;8.232;2023-04-15T10:15:44;95935.33;;;10.62;64.46
79465;BME280;68932;47.410;8.232;2023-04-15T10:18:13;95933.73;;;10.61;65.10
79465;BME280;68932;47.410;8.232;2023-04-15T10:20:41;95938.07;;;10.59;65.21
79465;BME280;68932;47.410;8.232;2023-04-15T10:23:09;95936.70;;;10.54;65.87
79465;BME280;68932;47.410;8.232;2023-04-15T10:25:37;95941.41;;;10.50;66.28
79465;BME280;68932;47.410;8.232;2023-04-15T10:28:06;95943.45;;;10.45;64.90
79465;BME280;68932;47.410;8.232;2023-04-15T10:30:34;95942.84;;;10.39;63.94
79465;BME280;68932;47.410;8.232;2023-04-15T10:33:02;95945.35;;;10.36;64.26
79465;BME280;68932;47.410;8.232;2023-04-15T10:35:31;95951.86;;;10.32;63.57
79465;BME280;68932;47.410;8.232;2023-04-15T10:37:59;95957.02;;;10.26;63.15
79465;BME280;68932;47.410;8.232;2023-04-15T10:40:28;95963.55;;;10.23;64.11
79465;BME280;68932;47.410;8.232;2023-04-15T10:42:57;95962.14;;;10.19;66.35
79465;BME280;68932;47.410;8.232;2023-04-15T10:45:26;95961.64;;;10.16;67.14
79465;BME280;68932;47.410;8.232;2023-04-15T10:47:55;95965.33;;;10.14;66.19
79465;BME280;68932;47.410;8.232;2023-04-15T10:50:25;95967.70;;;10.11;65.77
79465;BME280;68932;47.410;8.232;2023-04-15T10:52:52;95973.48;;;10.11;66.40
79465;BME280;68932;47.410;8.232;2023-04-15T10:55:21;95979.80;;;10.13;66.86
79465;BME280;68932;47.410;8.232;2023-04-15T10:57:52;95980.37;;;10.14;67.04
79465;BME280;68932;47.410;8.232;2023-04-15T11:00:24;95981.61;;;10.16;67.01
79465;BME280;68932;47.410;8.232;2023-04-15T11:02:54;95987.92;;;10.18;67.10
79465;BME280;68932;47.410;8.232;2023-04-15T11:05:22;95993.89;;;10.23;66.91
79465;BME280;68932;47.410;8.232;2023-04-15T11:08:09;95996.31;;;10.23;66.64
79465;BME280;68932;47.410;8.232;2023-04-15T11:10:51;96000.00;;;10.27;66.92
79465;BME280;68932;47.410;8.232;2023-04-15T11:13:20;96004.73;;;10.32;66.81
79465;BME280;68932;47.410;8.232;2023-04-15T11:15:48;96007.12;;;10.33;66.82
79465;BME280;68932;47.410;8.232;2023-04-15T11:18:16;96010.77;;;10.28;66.31
79465;BME280;68932;47.410;8.232;2023-04-15T11:20:45;96012.52;;;10.26;66.66
79465;BME280;68932;47.410;8.232;2023-04-15T11:23:13;96015.27;;;10.29;67.51
79465;BME280;68932;47.410;8.232;2023-04-15T11:25:40;96016.65;;;10.36;67.92
79465;BME280;68932;47.410;8.232;2023-04-15T11:28:08;96020.28;;;10.39;67.35
79465;BME280;68932;47.410;8.232;2023-04-15T11:30:35;96017.33;;;10.36;66.98
79465;BME280;68932;47.410;8.232;2023-04-15T11:33:04;96016.63;;;10.39;66.99
79465;BME280;68932;47.410;8.232;2023-04-15T11:35:32;96021.55;;;10.45;67.61
79465;BME280;68932;47.410;8.232;2023-04-15T11:38:03;96024.08;;;10.51;67.21
79465;BME280;68932;47.410;8.232;2023-04-15T11:40:30;96020.93;;;10.55;67.79
79465;BME280;68932;47.410;8.232;2023-04-15T11:43:16;96018.89;;;10.61;68.22
79465;BME280;68932;47.410;8.232;2023-04-15T11:45:51;96020.13;;;10.67;68.25
79465;BME280;68932;47.410;8.232;2023-04-15T11:48:20;96022.45;;;10.68;68.39
79465;BME280;68932;47.410;8.232;2023-04-15T11:50:53;96021.30;;;10.66;67.74
79465;BME280;68932;47.410;8.232;2023-04-15T11:53:20;96025.71;;;10.54;66.87
79465;BME280;68932;47.410;8.232;2023-04-15T11:55:49;96026.81;;;10.49;67.51
79465;BME280;68932;47.410;8.232;2023-04-15T11:58:17;96038.90;;;10.49;67.81
79465;BME280;68932;47.410;8.232;2023-04-15T12:00:49;96042.33;;;10.48;67.41
79465;BME280;68932;47.410;8.232;2023-04-15T12:03:22;96052.10;;;10.51;67.80
79465;BME280;68932;47.410;8.232;2023-04-15T12:06:11;96052.62;;;10.53;67.32
79465;BME280;68932;47.410;8.232;2023-04-15T12:09:08;96056.70;;;10.55;67.22
79465;BME280;68932;47.410;8.232;2023-04-15T12:11:38;96060.20;;;10.61;66.63
79465;BME280;68932;47.410;8.232;2023-04-15T12:14:10;96062.90;;;10.65;67.24
79465;BME280;68932;47.410;8.232;2023-04-15T12:16:40;96065.23;;;10.72;67.64
79465;BME280;68932;47.410;8.232;2023-04-15T12:19:10;96070.20;;;10.78;66.79
79465;BME280;68932;47.410;8.232;2023-04-15T12:21:40;96067.56;;;10.83;65.97
79465;BME280;68932;47.410;8.232;2023-04-15T12:24:09;96071.92;;;10.86;66.00
79465;BME280;68932;47.410;8.232;2023-04-15T12:26:42;96074.23;;;10.87;65.79
79465;BME280;68932;47.410;8.232;2023-04-15T12:29:11;96077.29;;;10.84;65.39
79465;BME280;68932;47.410;8.232;2023-04-15T12:31:46;96080.90;;;10.85;65.36
79465;BME280;68932;47.410;8.232;2023-04-15T12:34:14;96087.62;;;10.89;65.98
79465;BME280;68932;47.410;8.232;2023-04-15T12:36:41;96094.70;;;10.94;65.63
79465;BME280;68932;47.410;8.232;2023-04-15T12:39:08;96098.41;;;10.94;65.36
79465;BME280;68932;47.410;8.232;2023-04-15T12:41:35;96099.02;;;10.89;65.11
79465;BME280;68932;47.410;8.232;2023-04-15T12:44:02;96105.94;;;10.88;65.61
79465;BME280;68932;47.410;8.232;2023-04-15T12:46:29;96108.94;;;10.92;65.97
79465;BME280;68932;47.410;8.232;2023-04-15T12:48:57;96109.96;;;10.98;66.41
79465;BME280;68932;47.410;8.232;2023-04-15T12:51:24;96113.16;;;11.00;65.89
79465;BME280;68932;47.410;8.232;2023-04-15T12:53:51;96114.11;;;11.01;65.83
79465;BME280;68932;47.410;8.232;2023-04-15T12:56:18;96118.45;;;11.02;65.12
79465;BME280;68932;47.410;8.232;2023-04-15T12:58:45;96118.05;;;11.05;65.46
79465;BME280;68932;47.410;8.232;2023-04-15T13:01:12;96119.85;;;11.10;65.79
79465;BME280;68932;47.410;8.232;2023-04-15T13:03:39;96121.00;;;11.15;65.48
79465;BME280;68932;47.410;8.232;2023-04-15T13:06:06;96120.46;;;11.16;65.44
79465;BME280;68932;47.410;8.232;2023-04-15T13:08:33;96116.95;;;11.20;66.17
79465;BME280;68932;47.410;8.232;2023-04-15T13:11:00;96117.59;;;11.23;65.89